sensor_id;sensor_type;location;lat;lon;timestamp;temperature;humidity
65826;DHT22;52586;-43.152;172.732;2022-08-05T00:01:20;16.60;51.30
65826;DHT22;52586;-43.152;172.732;2022-08-05T00:03:51;16.60;51.30
65826;DHT22;52586;-43.152;172.732;2022-08-05T00:06:22;16.60;51.30
65826;DHT22;52586;-43.152;172.732;2022-08-05T00:08:53;16.60;51.30
65826;DHT22;52586;-43.152;172.732;2022-08-05T00:11:26;16.60;51.30
65826;DHT22;52586;-43.152;172.732;2022-08-05T00:13:57;16.60;51.30
65826;DHT22;52586;-43.152;172.732;2022-08-05T00:16:27;16.60;51.30
65826;DHT22;52586;-43.152;172.732;2022-08-05T00:18:58;16.60;51.40
65826;DHT22;52586;-43.152;172.732;2022-08-05T00:21:29;16.70;51.40
65826;DHT22;52586;-43.152;172.732;2022-08-05T00:24:00;16.70;51.30
65826;DHT22;52586;-43.152;172.732;2022-08-05T00:26:32;16.70;51.20
65826;DHT22;52586;-43.152;172.732;2022-08-05T00:29:03;16.70;51.20
65826;DHT22;52586;-43.152;172.732;2022-08-05T00:31:34;16.70;51.10
65826;DHT22;52586;-43.152;172.732;2022-08-05T00:34:05;16.70;51.00
65826;DHT22;52586;-43.152;172.732;2022-08-05T00:36:35;16.70;51.00
65826;DHT22;52586;-43.152;172.732;2022-08-05T00:39:06;16.70;50.80
65826;DHT22;52586;-43.152;172.732;2022-08-05T00:41:39;16.70;50.70
65826;DHT22;52586;-43.152;172.732;2022-08-05T00:44:10;16.70;50.70
65826;DHT22;52586;-43.152;172.732;2022-08-05T00:46:40;16.80;50.70
65826;DHT22;52586;-43.152;172.732;2022-08-05T00:49:11;16.80;50.70
65826;DHT22;52586;-43.152;172.732;2022-08-05T00:51:45;16.80;50.60
65826;DHT22;52586;-43.152;172.732;2022-08-05T00:54:16;16.80;50.60
65826;DHT22;52586;-43.152;172.732;2022-08-05T00:56:49;16.80;50.60
65826;DHT22;52586;-43.152;172.732;2022-08-05T00:59:19;16.80;50.50
65826;DHT22;52586;-43.152;172.732;2022-08-05T01:01:50;16.80;50.50
65826;DHT22;52586;-43.152;172.732;2022-08-05T01:04:21;16.90;50.50
65826;DHT22;52586;-43.152;172.732;2022-08-05T01:06:51;16.80;50.40
65826;DHT22;52586;-43.152;172.732;2022-08-05T01:09:23;16.80;50.50
65826;DHT22;52586;-43.152;172.732;2022-08-05T01:12:01;16.90;50.80
65826;DHT22;52586;-43.152;172.732;2022-08-05T01:14:36;16.90;50.80
65826;DHT22;52586;-43.152;172.732;2022-08-05T01:17:09;17.00;50.80
65826;DHT22;52586;-43.152;172.732;2022-08-05T01:19:44;17.00;50.70
65826;DHT22;52586;-43.152;172.732;2022-08-05T01:22:34;17.00;50.70
65826;DHT22;52586;-43.152;172.732;2022-08-05T01:28:26;17.00;50.70
65826;DHT22;52586;-43.152;172.732;2022-08-05T01:31:03;17.10;50.70
65826;DHT22;52586;-43.152;172.732;2022-08-05T01:33:45;17.10;50.60
65826;DHT22;52586;-43.152;172.732;2022-08-05T01:36:19;17.10;50.60
65826;DHT22;52586;-43.152;172.732;2022-08-05T01:38:52;17.10;50.60
65826;DHT22;52586;-43.152;172.732;2022-08-05T01:41:25;17.10;50.70
65826;DHT22;52586;-43.152;172.732;2022-08-05T01:43:58;17.10;50.70
65826;DHT22;52586;-43.152;172.732;2022-08-05T01:46:31;17.10;50.70
65826;DHT22;52586;-43.152;172.732;2022-08-05T01:49:04;17.10;50.70
65826;DHT22;52586;-43.152;172.732;2022-08-05T01:51:36;17.20;50.80
65826;DHT22;52586;-43.152;172.732;2022-08-05T01:54:09;17.20;50.80
65826;DHT22;52586;-43.152;172.732;2022-08-05T01:56:42;17.20;50.80
65826;DHT22;52586;-43.152;172.732;2022-08-05T01:59:17;17.20;50.80
65826;DHT22;52586;-43.152;172.732;2022-08-05T02:01:53;17.20;50.80
65826;DHT22;52586;-43.152;172.732;2022-08-05T02:04:27;17.20;50.80
65826;DHT22;52586;-43.152;172.732;2022-08-05T02:06:59;17.30;50.80
65826;DHT22;52586;-43.152;172.732;2022-08-05T02:09:30;17.30;50.80
65826;DHT22;52586;-43.152;172.732;2022-08-05T02:12:05;17.30;50.80
65826;DHT22;52586;-43.152;172.732;2022-08-05T02:14:43;17.30;50.80
65826;DHT22;52586;-43.152;172.732;2022-08-05T02:17:18;17.30;50.90
65826;DHT22;52586;-43.152;172.732;2022-08-05T02:19:57;17.30;50.90
65826;DHT22;52586;-43.152;172.732;2022-08-05T02:22:31;17.40;50.90
65826;DHT22;52586;-43.152;172.732;2022-08-05T02:25:04;17.40;50.90
65826;DHT22;52586;-43.152;172.732;2022-08-05T02:27:38;17.40;51.00
65826;DHT22;52586;-43.152;172.732;2022-08-05T02:30:13;17.40;50.90
65826;DHT22;52586;-43.152;172.732;2022-08-05T02:32:46;17.40;50.90
65826;DHT22;52586;-43.152;172.732;2022-08-05T02:35:25;17.50;51.00
65826;DHT22;52586;-43.152;172.732;2022-08-05T02:37:58;17.40;50.90
65826;DHT22;52586;-43.152;172.732;2022-08-05T02:40:30;17.50;51.00
65826;DHT22;52586;-43.152;172.732;2022-08-05T02:43:02;17.50;50.90
65826;DHT22;52586;-43.152;172.732;2022-08-05T02:45:36;17.50;51.00
65826;DHT22;52586;-43.152;172.732;2022-08-05T02:48:08;17.50;51.00
65826;DHT22;52586;-43.152;172.732;2022-08-05T02:50:41;17.50;51.00
65826;DHT22;52586;-43.152;172.732;2022-08-05T02:53:14;17.60;51.00
65826;DHT22;52586;-43.152;172.732;2022-08-05T02:55:47;17.60;51.00
65826;DHT22;52586;-43.152;172.732;2022-08-05T02:58:21;17.60;51.00
65826;DHT22;52586;-43.152;172.732;2022-08-05T03:00:55;17.60;51.00
65826;DHT22;52586;-43.152;172.732;2022-08-05T03:03:28;17.70;50.90
65826;DHT22;52586;-43.152;172.732;2022-08-05T03:05:59;17.70;50.90
65826;DHT22;52586;-43.152;172.732;2022-08-05T03:08:31;17.70;50.90
65826;DHT22;52586;-43.152;172.732;2022-08-05T03:11:02;17.70;50.90
65826;DHT22;52586;-43.152;172.732;2022-08-05T03:13:33;17.70;50.90
65826;DHT22;52586;-43.152;172.732;2022-08-05T03:16:05;17.70;50.90
65826;DHT22;52586;-43.152;172.732;2022-08-05T03:18:36;17.80;50.90
65826;DHT22;52586;-43.152;172.732;2022-08-05T03:21:07;17.80;50.90
65826;DHT22;52586;-43.152;172.732;2022-08-05T03:23:39;17.80;50.90
65826;DHT22;52586;-43.152;172.732;2022-08-05T03:26:11;17.80;50.90
65826;DHT22;52586;-43.152;172.732;2022-08-05T03:28:41;17.80;50.80
65826;DHT22;52586;-43.152;172.732;2022-08-05T03:31:14;17.90;50.80
65826;DHT22;52586;-43.152;172.732;2022-08-05T03:33:45;17.90;50.80
65826;DHT22;52586;-43.152;172.732;2022-08-05T03:36:16;17.90;50.80
65826;DHT22;52586;-43.152;172.732;2022-08-05T03:38:47;17.90;50.80
65826;DHT22;52586;-43.152;172.732;2022-08-05T03:41:17;17.90;50.80
65826;DHT22;52586;-43.152;172.732;2022-08-05T03:43:48;17.90;50.70
65826;DHT22;52586;-43.152;172.732;2022-08-05T03:46:20;17.90;50.70
65826;DHT22;52586;-43.152;172.732;2022-08-05T03:48:51;18.00;50.70
65826;DHT22;52586;-43.152;172.732;2022-08-05T03:51:26;17.90;50.70
65826;DHT22;52586;-43.152;172.732;2022-08-05T03:54:02;18.00;50.70
65826;DHT22;52586;-43.152;172.732;2022-08-05T03:56:37;18.00;50.70
65826;DHT22;52586;-43.152;172.732;2022-08-05T03:59:12;18.00;50.70
65826;DHT22;52586;-43.152;172.732;2022-08-05T04:01:49;18.00;50.70
65826;DHT22;52586;-43.152;172.732;2022-08-05T04:04:21;18.00;50.70
65826;DHT22;52586;-43.152;172.732;2022-08-05T04:06:53;18.10;50.90
65826;DHT22;52586;-43.152;172.732;2022-08-05T04:09:25;18.10;51.00
65826;DHT22;52586;-43.152;172.732;2022-08-05T04:11:56;18.10;51.00
65826;DHT22;52586;-43.152;172.732;2022-08-05T04:14:27;18.10;51.00
65826;DHT22;52586;-43.152;172.732;2022-08-05T04:17:00;18.10;50.90
65826;DHT22;52586;-43.152;172.732;2022-08-05T04:19:31;18.10;50.90
65826;DHT22;52586;-43.152;172.732;2022-08-05T04:22:11;18.10;50.90
65826;DHT22;52586;-43.152;172.732;2022-08-05T04:24:42;18.10;50.90
65826;DHT22;52586;-43.152;172.732;2022-08-05T04:27:13;18.10;50.90
65826;DHT22;52586;-43.152;172.732;2022-08-05T04:29:44;18.10;50.90
65826;DHT22;52586;-43.152;172.732;2022-08-05T04:32:17;18.10;50.90
65826;DHT22;52586;-43.152;172.732;2022-08-05T04:34:47;18.10;50.80
65826;DHT22;52586;-43.152;172.732;2022-08-05T04:37:18;18.10;50.80
65826;DHT22;52586;-43.152;172.732;2022-08-05T04:39:49;18.10;50.70
65826;DHT22;52586;-43.152;172.732;2022-08-05T04:42:19;18.10;50.70
65826;DHT22;52586;-43.152;172.732;2022-08-05T04:44:50;18.20;50.70
65826;DHT22;52586;-43.152;172.732;2022-08-05T04:47:22;18.20;50.70
65826;DHT22;52586;-43.152;172.732;2022-08-05T04:49:53;18.20;50.70
65826;DHT22;52586;-43.152;172.732;2022-08-05T04:52:24;18.20;50.70
65826;DHT22;52586;-43.152;172.732;2022-08-05T04:54:55;18.30;50.70
65826;DHT22;52586;-43.152;172.732;2022-08-05T04:57:26;18.20;50.60
65826;DHT22;52586;-43.152;172.732;2022-08-05T04:59:56;18.20;50.60
65826;DHT22;52586;-43.152;172.732;2022-08-05T05:02:29;18.30;50.70
65826;DHT22;52586;-43.152;172.732;2022-08-05T05:05:00;18.20;50.60
65826;DHT22;52586;-43.152;172.732;2022-08-05T05:07:30;18.30;50.70
65826;DHT22;52586;-43.152;172.732;2022-08-05T05:10:01;18.30;50.70
65826;DHT22;52586;-43.152;172.732;2022-08-05T05:12:32;18.20;50.60
65826;DHT22;52586;-43.152;172.732;2022-08-05T05:15:03;18.30;50.60
65826;DHT22;52586;-43.152;172.732;2022-08-05T05:17:40;18.20;50.60
65826;DHT22;52586;-43.152;172.732;2022-08-05T05:20:12;18.20;50.50
65826;DHT22;52586;-43.152;172.732;2022-08-05T05:22:43;18.20;50.50
65826;DHT22;52586;-43.152;172.732;2022-08-05T05:25:13;18.20;50.40
65826;DHT22;52586;-43.152;172.732;2022-08-05T05:27:44;18.20;50.40
65826;DHT22;52586;-43.152;172.732;2022-08-05T05:30:15;18.20;50.30
65826;DHT22;52586;-43.152;172.732;2022-08-05T05:32:48;18.20;50.30
65826;DHT22;52586;-43.152;172.732;2022-08-05T05:35:19;18.20;50.80
65826;DHT22;52586;-43.152;172.732;2022-08-05T05:37:52;18.30;50.20
65826;DHT22;52586;-43.152;172.732;2022-08-05T05:40:24;18.30;50.20
65826;DHT22;52586;-43.152;172.732;2022-08-05T05:42:55;18.20;50.20
65826;DHT22;52586;-43.152;172.732;2022-08-05T05:45:26;18.30;50.20
65826;DHT22;52586;-43.152;172.732;2022-08-05T05:48:00;18.20;50.20
65826;DHT22;52586;-43.152;172.732;2022-08-05T05:50:33;18.20;50.10
65826;DHT22;52586;-43.152;172.732;2022-08-05T05:53:06;18.20;50.10
65826;DHT22;52586;-43.152;172.732;2022-08-05T05:55:38;18.20;50.00
65826;DHT22;52586;-43.152;172.732;2022-08-05T05:58:08;18.20;50.00
65826;DHT22;52586;-43.152;172.732;2022-08-05T06:00:39;18.20;50.00
65826;DHT22;52586;-43.152;172.732;2022-08-05T06:03:12;18.20;50.00
65826;DHT22;52586;-43.152;172.732;2022-08-05T06:05:43;18.20;49.90
65826;DHT22;52586;-43.152;172.732;2022-08-05T06:08:13;18.20;49.90
65826;DHT22;52586;-43.152;172.732;2022-08-05T06:10:44;18.20;49.90
65826;DHT22;52586;-43.152;172.732;2022-08-05T06:13:15;18.20;49.90
65826;DHT22;52586;-43.152;172.732;2022-08-05T06:15:45;18.20;49.90
65826;DHT22;52586;-43.152;172.732;2022-08-05T06:18:18;18.10;49.90
65826;DHT22;52586;-43.152;172.732;2022-08-05T06:20:49;18.20;49.90
65826;DHT22;52586;-43.152;172.732;2022-08-05T06:23:20;18.10;49.90
65826;DHT22;52586;-43.152;172.732;2022-08-05T06:25:51;18.10;49.90
65826;DHT22;52586;-43.152;172.732;2022-08-05T06:28:21;18.10;50.00
65826;DHT22;52586;-43.152;172.732;2022-08-05T06:30:52;18.10;49.90
65826;DHT22;52586;-43.152;172.732;2022-08-05T06:33:25;18.10;49.90
65826;DHT22;52586;-43.152;172.732;2022-08-05T06:35:55;18.20;50.00
65826;DHT22;52586;-43.152;172.732;2022-08-05T06:38:26;18.10;49.90
65826;DHT22;52586;-43.152;172.732;2022-08-05T06:40:57;18.10;49.90
65826;DHT22;52586;-43.152;172.732;2022-08-05T06:43:28;18.10;50.50
65826;DHT22;52586;-43.152;172.732;2022-08-05T06:45:59;18.10;50.60
65826;DHT22;52586;-43.152;172.732;2022-08-05T06:48:31;18.10;50.00
65826;DHT22;52586;-43.152;172.732;2022-08-05T06:51:03;18.10;50.00
65826;DHT22;52586;-43.152;172.732;2022-08-05T06:53:34;18.10;50.00
65826;DHT22;52586;-43.152;172.732;2022-08-05T06:56:05;18.10;50.00
65826;DHT22;52586;-43.152;172.732;2022-08-05T06:58:35;18.10;50.00
65826;DHT22;52586;-43.152;172.732;2022-08-05T07:01:06;18.10;50.10
65826;DHT22;52586;-43.152;172.732;2022-08-05T07:03:39;18.10;50.00
65826;DHT22;52586;-43.152;172.732;2022-08-05T07:06:10;18.10;50.00
65826;DHT22;52586;-43.152;172.732;2022-08-05T07:08:41;18.10;50.00
65826;DHT22;52586;-43.152;172.732;2022-08-05T07:11:11;18.10;49.90
65826;DHT22;52586;-43.152;172.732;2022-08-05T07:13:42;18.10;49.90
65826;DHT22;52586;-43.152;172.732;2022-08-05T07:16:29;18.10;50.00
65826;DHT22;52586;-43.152;172.732;2022-08-05T07:19:22;18.10;50.00
65826;DHT22;52586;-43.152;172.732;2022-08-05T07:21:53;18.00;49.90
65826;DHT22;52586;-43.152;172.732;2022-08-05T07:24:24;18.00;49.90
65826;DHT22;52586;-43.152;172.732;2022-08-05T07:26:55;18.00;49.90
65826;DHT22;52586;-43.152;172.732;2022-08-05T07:29:26;18.00;49.90
65826;DHT22;52586;-43.152;172.732;2022-08-05T07:31:57;18.00;50.00
65826;DHT22;52586;-43.152;172.732;2022-08-05T07:34:30;18.00;50.00
65826;DHT22;52586;-43.152;172.732;2022-08-05T07:37:00;18.00;50.00
65826;DHT22;52586;-43.152;172.732;2022-08-05T07:39:31;18.00;49.90
65826;DHT22;52586;-43.152;172.732;2022-08-05T07:42:02;18.00;49.90
65826;DHT22;52586;-43.152;172.732;2022-08-05T07:44:33;18.00;49.90
65826;DHT22;52586;-43.152;172.732;2022-08-05T07:47:03;18.00;49.90
65826;DHT22;52586;-43.152;172.732;2022-08-05T07:49:36;18.00;49.90
65826;DHT22;52586;-43.152;172.732;2022-08-05T07:52:06;18.00;49.90
65826;DHT22;52586;-43.152;172.732;2022-08-05T07:54:37;18.00;49.90
65826;DHT22;52586;-43.152;172.732;2022-08-05T07:57:08;18.00;50.00
65826;DHT22;52586;-43.152;172.732;2022-08-05T07:59:39;18.00;50.00
65826;DHT22;52586;-43.152;172.732;2022-08-05T08:02:10;18.00;50.00
65826;DHT22;52586;-43.152;172.732;2022-08-05T08:04:43;18.00;50.00
65826;DHT22;52586;-43.152;172.732;2022-08-05T08:07:13;18.00;50.00
65826;DHT22;52586;-43.152;172.732;2022-08-05T08:09:44;18.00;50.00
65826;DHT22;52586;-43.152;172.732;2022-08-05T08:12:15;18.00;50.00
65826;DHT22;52586;-43.152;172.732;2022-08-05T08:14:46;18.00;50.00
65826;DHT22;52586;-43.152;172.732;2022-08-05T08:17:17;18.00;50.00
65826;DHT22;52586;-43.152;172.732;2022-08-05T08:19:49;18.00;50.00
65826;DHT22;52586;-43.152;172.732;2022-08-05T08:22:25;18.00;50.10
65826;DHT22;52586;-43.152;172.732;2022-08-05T08:24:56;18.00;50.10
65826;DHT22;52586;-43.152;172.732;2022-08-05T08:27:27;18.00;50.10
65826;DHT22;52586;-43.152;172.732;2022-08-05T08:29:57;18.00;50.20
65826;DHT22;52586;-43.152;172.732;2022-08-05T08:32:28;18.00;50.20
65826;DHT22;52586;-43.152;172.732;2022-08-05T08:35:05;18.00;50.20
65826;DHT22;52586;-43.152;172.732;2022-08-05T08:37:36;18.00;50.20
65826;DHT22;52586;-43.152;172.732;2022-08-05T08:40:07;18.00;50.20
65826;DHT22;52586;-43.152;172.732;2022-08-05T08:42:38;18.00;50.30
65826;DHT22;52586;-43.152;172.732;2022-08-05T08:45:10;18.00;50.20
65826;DHT22;52586;-43.152;172.732;2022-08-05T08:47:41;18.00;50.30
65826;DHT22;52586;-43.152;172.732;2022-08-05T08:50:19;18.00;50.40
65826;DHT22;52586;-43.152;172.732;2022-08-05T08:52:53;18.00;50.40
65826;DHT22;52586;-43.152;172.732;2022-08-05T08:55:24;18.00;50.50
65826;DHT22;52586;-43.152;172.732;2022-08-05T08:57:55;18.00;50.50
65826;DHT22;52586;-43.152;172.732;2022-08-05T09:00:26;18.10;50.60
65826;DHT22;52586;-43.152;172.732;2022-08-05T09:02:57;18.10;50.50
65826;DHT22;52586;-43.152;172.732;2022-08-05T09:05:30;18.10;50.50
65826;DHT22;52586;-43.152;172.732;2022-08-05T09:08:01;18.10;50.50
65826;DHT22;52586;-43.152;172.732;2022-08-05T09:10:31;18.10;50.50
65826;DHT22;52586;-43.152;172.732;2022-08-05T09:13:02;18.10;50.50
65826;DHT22;52586;-43.152;172.732;2022-08-05T09:15:33;18.10;50.50
65826;DHT22;52586;-43.152;172.732;2022-08-05T09:18:06;18.10;50.50
65826;DHT22;52586;-43.152;172.732;2022-08-05T09:20:39;18.10;50.50
65826;DHT22;52586;-43.152;172.732;2022-08-05T09:23:12;18.10;50.50
65826;DHT22;52586;-43.152;172.732;2022-08-05T09:25:45;18.10;50.60
65826;DHT22;52586;-43.152;172.732;2022-08-05T09:28:19;18.10;50.60
65826;DHT22;52586;-43.152;172.732;2022-08-05T09:30:55;18.10;50.60
65826;DHT22;52586;-43.152;172.732;2022-08-05T09:33:27;18.10;50.60
65826;DHT22;52586;-43.152;172.732;2022-08-05T09:36:01;18.10;50.60
65826;DHT22;52586;-43.152;172.732;2022-08-05T09:38:33;18.10;50.60
65826;DHT22;52586;-43.152;172.732;2022-08-05T09:41:04;18.20;50.60
65826;DHT22;52586;-43.152;172.732;2022-08-05T09:43:37;18.10;50.60
65826;DHT22;52586;-43.152;172.732;2022-08-05T09:46:23;18.10;50.60
65826;DHT22;52586;-43.152;172.732;2022-08-05T09:48:56;18.20;50.60
65826;DHT22;52586;-43.152;172.732;2022-08-05T09:51:35;18.20;50.60
65826;DHT22;52586;-43.152;172.732;2022-08-05T09:54:06;18.20;50.60
65826;DHT22;52586;-43.152;172.732;2022-08-05T09:56:38;18.20;50.60
65826;DHT22;52586;-43.152;172.732;2022-08-05T09:59:10;18.20;50.60
65826;DHT22;52586;-43.152;172.732;2022-08-05T10:01:43;18.20;50.70
65826;DHT22;52586;-43.152;172.732;2022-08-05T10:04:15;18.20;50.70
65826;DHT22;52586;-43.152;172.732;2022-08-05T10:06:56;18.20;50.70
65826;DHT22;52586;-43.152;172.732;2022-08-05T10:09:27;18.20;50.70
65826;DHT22;52586;-43.152;172.732;2022-08-05T10:12:08;18.20;50.60
65826;DHT22;52586;-43.152;172.732;2022-08-05T10:14:39;18.20;50.70
65826;DHT22;52586;-43.152;172.732;2022-08-05T10:17:14;18.20;50.70
65826;DHT22;52586;-43.152;172.732;2022-08-05T10:19:45;18.20;50.70
65826;DHT22;52586;-43.152;172.732;2022-08-05T10:22:17;18.30;50.70
65826;DHT22;52586;-43.152;172.732;2022-08-05T10:24:48;18.30;50.70
65826;DHT22;52586;-43.152;172.732;2022-08-05T10:27:19;18.20;50.70
65826;DHT22;52586;-43.152;172.732;2022-08-05T10:29:50;18.30;50.80
65826;DHT22;52586;-43.152;172.732;2022-08-05T10:32:21;18.30;50.80
65826;DHT22;52586;-43.152;172.732;2022-08-05T10:34:52;18.30;50.80
65826;DHT22;52586;-43.152;172.732;2022-08-05T10:37:27;18.30;50.80
65826;DHT22;52586;-43.152;172.732;2022-08-05T10:40:02;18.30;50.80
65826;DHT22;52586;-43.152;172.732;2022-08-05T10:42:35;18.30;50.80
65826;DHT22;52586;-43.152;172.732;2022-08-05T10:45:07;18.30;50.80
65826;DHT22;52586;-43.152;172.732;2022-08-05T10:47:38;18.30;50.80
65826;DHT22;52586;-43.152;172.732;2022-08-05T10:50:11;18.30;50.90
65826;DHT22;52586;-43.152;172.732;2022-08-05T10:52:46;18.40;50.90
65826;DHT22;52586;-43.152;172.732;2022-08-05T10:55:20;18.30;50.90
65826;DHT22;52586;-43.152;172.732;2022-08-05T10:58:08;18.30;50.90
65826;DHT22;52586;-43.152;172.732;2022-08-05T11:00:45;18.30;50.90
65826;DHT22;52586;-43.152;172.732;2022-08-05T11:03:16;18.40;51.00
65826;DHT22;52586;-43.152;172.732;2022-08-05T11:06:02;18.40;51.00
65826;DHT22;52586;-43.152;172.732;2022-08-05T11:08:35;18.30;51.00
65826;DHT22;52586;-43.152;172.732;2022-08-05T11:11:32;18.40;51.00
65826;DHT22;52586;-43.152;172.732;2022-08-05T11:14:03;18.30;51.00
65826;DHT22;52586;-43.152;172.732;2022-08-05T11:16:34;18.40;51.00
65826;DHT22;52586;-43.152;172.732;2022-08-05T11:19:27;18.40;51.00
65826;DHT22;52586;-43.152;172.732;2022-08-05T11:25:29;18.40;51.00
65826;DHT22;52586;-43.152;172.732;2022-08-05T11:31:23;18.40;51.00
65826;DHT22;52586;-43.152;172.732;2022-08-05T11:33:59;18.40;51.10
65826;DHT22;52586;-43.152;172.732;2022-08-05T11:36:50;18.40;51.10
65826;DHT22;52586;-43.152;172.732;2022-08-05T11:39:48;18.40;51.10
65826;DHT22;52586;-43.152;172.732;2022-08-05T11:42:25;18.40;51.10
65826;DHT22;52586;-43.152;172.732;2022-08-05T11:45:01;18.40;51.00
65826;DHT22;52586;-43.152;172.732;2022-08-05T11:47:34;18.40;51.10
65826;DHT22;52586;-43.152;172.732;2022-08-05T11:50:06;18.40;51.10
65826;DHT22;52586;-43.152;172.732;2022-08-05T11:52:37;18.40;51.10
65826;DHT22;52586;-43.152;172.732;2022-08-05T11:55:08;18.40;51.10
65826;DHT22;52586;-43.152;172.732;2022-08-05T11:57:45;18.40;51.10
65826;DHT22;52586;-43.152;172.732;2022-08-05T12:00:26;18.40;51.20
65826;DHT22;52586;-43.152;172.732;2022-08-05T12:03:02;18.40;51.20
65826;DHT22;52586;-43.152;172.732;2022-08-05T12:05:44;18.40;51.20
65826;DHT22;52586;-43.152;172.732;2022-08-05T12:08:14;18.40;51.10
65826;DHT22;52586;-43.152;172.732;2022-08-05T12:10:46;18.40;51.10
65826;DHT22;52586;-43.152;172.732;2022-08-05T12:13:19;18.40;51.10
65826;DHT22;52586;-43.152;172.732;2022-08-05T12:15:50;18.40;51.10
65826;DHT22;52586;-43.152;172.732;2022-08-05T12:18:27;18.40;51.10
65826;DHT22;52586;-43.152;172.732;2022-08-05T12:21:11;18.40;51.20
65826;DHT22;52586;-43.152;172.732;2022-08-05T12:23:56;18.40;51.10
65826;DHT22;52586;-43.152;172.732;2022-08-05T12:26:32;18.40;51.10
65826;DHT22;52586;-43.152;172.732;2022-08-05T12:29:06;18.40;51.10
65826;DHT22;52586;-43.152;172.732;2022-08-05T12:31:38;18.40;51.20
65826;DHT22;52586;-43.152;172.732;2022-08-05T12:34:09;18.40;51.20
65826;DHT22;52586;-43.152;172.732;2022-08-05T12:36:41;18.40;51.20
65826;DHT22;52586;-43.152;172.732;2022-08-05T12:39:12;18.50;51.30
65826;DHT22;52586;-43.152;172.732;2022-08-05T12:41:44;18.40;51.20
65826;DHT22;52586;-43.152;172.732;2022-08-05T12:44:17;18.50;51.20
65826;DHT22;52586;-43.152;172.732;2022-08-05T12:46:53;18.40;51.20
65826;DHT22;52586;-43.152;172.732;2022-08-05T12:49:24;18.50;51.30
65826;DHT22;52586;-43.152;172.732;2022-08-05T12:51:57;18.50;51.30
65826;DHT22;52586;-43.152;172.732;2022-08-05T12:54:29;18.50;51.30
65826;DHT22;52586;-43.152;172.732;2022-08-05T12:57:02;18.40;51.20
65826;DHT22;52586;-43.152;172.732;2022-08-05T12:59:44;18.50;51.30
65826;DHT22;52586;-43.152;172.732;2022-08-05T13:02:19;18.50;51.30
65826;DHT22;52586;-43.152;172.732;2022-08-05T13:04:50;18.40;51.20
65826;DHT22;52586;-43.152;172.732;2022-08-05T13:07:23;18.50;51.30
65826;DHT22;52586;-43.152;172.732;2022-08-05T13:09:55;18.50;51.30
65826;DHT22;52586;-43.152;172.732;2022-08-05T13:12:26;18.50;51.30
65826;DHT22;52586;-43.152;172.732;2022-08-05T13:15:00;18.50;51.30
65826;DHT22;52586;-43.152;172.732;2022-08-05T13:17:31;18.50;51.30
65826;DHT22;52586;-43.152;172.732;2022-08-05T13:20:03;18.50;51.30
65826;DHT22;52586;-43.152;172.732;2022-08-05T13:22:36;18.50;51.40
65826;DHT22;52586;-43.152;172.732;2022-08-05T13:25:08;18.50;51.30
65826;DHT22;52586;-43.152;172.732;2022-08-05T13:27:39;18.50;51.30
65826;DHT22;52586;-43.152;172.732;2022-08-05T13:30:13;18.50;51.30
65826;DHT22;52586;-43.152;172.732;2022-08-05T13:32:44;18.50;51.30
65826;DHT22;52586;-43.152;172.732;2022-08-05T13:35:16;18.50;51.40
65826;DHT22;52586;-43.152;172.732;2022-08-05T13:37:47;18.50;51.40
65826;DHT22;52586;-43.152;172.732;2022-08-05T13:40:18;18.50;51.40
65826;DHT22;52586;-43.152;172.732;2022-08-05T13:42:49;18.50;51.40
65826;DHT22;52586;-43.152;172.732;2022-08-05T13:45:21;18.50;51.40
65826;DHT22;52586;-43.152;172.732;2022-08-05T13:47:52;18.50;51.40
65826;DHT22;52586;-43.152;172.732;2022-08-05T13:50:23;18.50;51.40
65826;DHT22;52586;-43.152;172.732;2022-08-05T13:52:53;18.50;51.50
65826;DHT22;52586;-43.152;172.732;2022-08-05T13:55:24;18.50;51.40
65826;DHT22;52586;-43.152;172.732;2022-08-05T13:57:55;18.50;51.40
65826;DHT22;52586;-43.152;172.732;2022-08-05T14:00:27;18.50;51.50
65826;DHT22;52586;-43.152;172.732;2022-08-05T14:02:58;18.50;51.40
65826;DHT22;52586;-43.152;172.732;2022-08-05T14:05:29;18.50;51.50
65826;DHT22;52586;-43.152;172.732;2022-08-05T14:07:58;18.50;51.50
65826;DHT22;52586;-43.152;172.732;2022-08-05T14:10:29;18.50;51.50
65826;DHT22;52586;-43.152;172.732;2022-08-05T14:12:59;18.50;51.50
65826;DHT22;52586;-43.152;172.732;2022-08-05T14:15:32;18.50;51.50
65826;DHT22;52586;-43.152;172.732;2022-08-05T14:18:03;18.60;51.60
65826;DHT22;52586;-43.152;172.732;2022-08-05T14:20:34;18.60;51.50
65826;DHT22;52586;-43.152;172.732;2022-08-05T14:23:05;18.60;51.50
65826;DHT22;52586;-43.152;172.732;2022-08-05T14:25:36;18.60;51.50
65826;DHT22;52586;-43.152;172.732;2022-08-05T14:28:06;18.60;51.50
65826;DHT22;52586;-43.152;172.732;2022-08-05T14:30:39;18.50;51.50
65826;DHT22;52586;-43.152;172.732;2022-08-05T14:33:10;18.60;51.60
65826;DHT22;52586;-43.152;172.732;2022-08-05T14:35:40;18.60;51.70
65826;DHT22;52586;-43.152;172.732;2022-08-05T14:38:11;18.50;51.60
65826;DHT22;52586;-43.152;172.732;2022-08-05T14:40:42;18.50;51.60
65826;DHT22;52586;-43.152;172.732;2022-08-05T14:43:12;18.60;51.70
65826;DHT22;52586;-43.152;172.732;2022-08-05T14:45:45;18.60;51.70
65826;DHT22;52586;-43.152;172.732;2022-08-05T14:48:15;18.60;51.70
65826;DHT22;52586;-43.152;172.732;2022-08-05T14:51:05;18.60;51.70
65826;DHT22;52586;-43.152;172.732;2022-08-05T14:53:36;18.60;51.70
65826;DHT22;52586;-43.152;172.732;2022-08-05T14:56:06;18.60;51.60
65826;DHT22;52586;-43.152;172.732;2022-08-05T14:58:37;18.60;51.70
65826;DHT22;52586;-43.152;172.732;2022-08-05T15:01:10;18.60;51.70
65826;DHT22;52586;-43.152;172.732;2022-08-05T15:03:41;18.60;51.70
65826;DHT22;52586;-43.152;172.732;2022-08-05T15:06:11;18.60;51.70
65826;DHT22;52586;-43.152;172.732;2022-08-05T15:08:45;18.60;51.70
65826;DHT22;52586;-43.152;172.732;2022-08-05T15:11:17;18.60;51.70
65826;DHT22;52586;-43.152;172.732;2022-08-05T15:13:48;18.60;51.70
65826;DHT22;52586;-43.152;172.732;2022-08-05T15:16:20;18.60;51.70
65826;DHT22;52586;-43.152;172.732;2022-08-05T15:18:51;18.60;51.70
65826;DHT22;52586;-43.152;172.732;2022-08-05T15:21:21;18.70;51.70
65826;DHT22;52586;-43.152;172.732;2022-08-05T15:23:52;18.60;52.30
65826;DHT22;52586;-43.152;172.732;2022-08-05T15:26:23;18.60;51.60
65826;DHT22;52586;-43.152;172.732;2022-08-05T15:28:54;18.60;51.60
65826;DHT22;52586;-43.152;172.732;2022-08-05T15:31:26;18.60;51.60